Time;durP1;ratioP1;P1;durP2;ratioP2;P2;SDS_P1;SDS_P2;PMS_P1;PMS_P2;Temp;Humidity;BMP_temperature;BMP_pressure;BME280_temperature;BME280_humidity;BME280_pressure;Samples;Min_cycle;Max_cycle;Signal;HPM_P1;HPM_P2
2021/06/09 00:02:59;;;;;;;5.60;5.10;;;17.20;99.90;;;;;;7615337;23;20160;-71
2021/06/09 00:06:01;;;;;;;6.33;5.83;;;17.20;99.90;;;;;;7640801;23;20161;-71
2021/06/09 00:09:05;;;;;;;5.53;5.03;;;17.20;99.90;;;;;;7640162;23;20211;-71
2021/06/09 00:12:08;;;;;;;6.53;5.87;;;17.20;99.90;;;;;;7614615;23;20173;-71
2021/06/09 00:15:14;;;;;;;5.70;5.23;;;17.20;99.90;;;;;;7615183;23;20492;-71
2021/06/09 00:18:16;;;;;;;6.10;5.60;;;17.20;99.90;;;;;;7640468;23;20157;-71
2021/06/09 00:21:19;;;;;;;5.70;5.20;;;17.20;99.90;;;;;;7640430;23;20172;-71
2021/06/09 00:24:23;;;;;;;5.90;5.40;;;17.10;99.90;;;;;;7641070;23;20165;-71
2021/06/09 00:27:27;;;;;;;6.23;5.63;;;17.10;99.90;;;;;;7640010;23;20192;-71
2021/06/09 00:30:34;;;;;;;5.33;4.93;;;17.10;99.90;;;;;;7614389;23;20169;-71
2021/06/09 00:33:37;;;;;;;6.03;5.47;;;17.10;99.90;;;;;;7615083;23;20157;-71
2021/06/09 00:36:39;;;;;;;6.07;5.57;;;17.10;99.90;;;;;;7640264;23;20188;-71
2021/06/09 00:39:42;;;;;;;6.17;5.60;;;17.10;99.90;;;;;;7613309;23;20639;-71
2021/06/09 00:43:14;;;;;;;5.93;5.20;;;17.00;99.90;;;;;;7640405;23;20169;-71
2021/06/09 00:46:16;;;;;;;4.83;4.43;;;17.00;99.90;;;;;;7640447;23;20205;-71
2021/06/09 00:49:18;;;;;;;5.37;4.97;;;17.00;99.90;;;;;;7613228;23;20204;-71
2021/06/09 00:52:28;;;;;;;5.60;5.10;;;16.90;99.90;;;;;;7614314;23;20248;-71
2021/06/09 00:55:30;;;;;;;6.27;5.77;;;16.90;99.90;;;;;;7639677;23;20481;-71
2021/06/09 00:58:33;;;;;;;7.63;5.80;;;16.80;99.90;;;;;;7640054;23;20203;-71
2021/06/09 01:01:35;;;;;;;5.50;5.00;;;16.70;99.90;;;;;;7613826;23;20191;-71
2021/06/09 01:04:38;;;;;;;6.67;6.07;;;16.70;99.90;;;;;;7639593;23;20169;-70
2021/06/09 01:07:40;;;;;;;6.13;5.53;;;16.60;99.90;;;;;;7640236;23;20189;-70
2021/06/09 01:10:49;;;;;;;6.53;5.93;;;16.50;99.90;;;;;;7639254;23;20171;-70
2021/06/09 01:13:54;;;;;;;6.67;6.07;;;16.40;99.90;;;;;;7641884;23;20160;-71
2021/06/09 01:16:56;;;;;;;6.87;6.17;;;16.30;99.90;;;;;;7615404;23;20176;-71
2021/06/09 01:19:58;;;;;;;6.50;5.90;;;16.20;99.90;;;;;;7616133;23;20178;-70
2021/06/09 01:23:02;;;;;;;6.57;6.07;;;16.20;99.90;;;;;;7642048;23;20594;-70
2021/06/09 01:26:06;;;;;;;7.40;6.70;;;16.20;99.90;;;;;;7641784;23;20178;-70
2021/06/09 01:29:09;;;;;;;5.63;5.13;;;16.10;99.90;;;;;;7641875;23;20185;-70
2021/06/09 01:32:12;;;;;;;6.87;5.83;;;16.00;99.90;;;;;;7641785;23;20165;-70
2021/06/09 01:35:14;;;;;;;6.43;5.93;;;16.00;99.90;;;;;;7641802;23;20168;-70
2021/06/09 01:38:17;;;;;;;6.53;5.93;;;15.90;99.90;;;;;;7641886;23;20193;-70
2021/06/09 01:41:23;;;;;;;6.97;5.87;;;15.80;99.90;;;;;;7615188;23;20180;-70
2021/06/09 01:44:26;;;;;;;6.03;5.53;;;15.80;99.90;;;;;;7616001;23;20185;-70
2021/06/09 01:47:28;;;;;;;6.90;6.30;;;15.70;99.90;;;;;;7641156;23;20199;-70
2021/06/09 01:50:31;;;;;;;7.57;6.07;;;15.70;99.90;;;;;;7641890;23;20164;-70
2021/06/09 01:53:33;;;;;;;7.17;6.47;;;15.60;99.90;;;;;;7617424;23;20183;-71
2021/06/09 01:56:36;;;;;;;6.90;6.20;;;15.60;99.90;;;;;;7643241;23;20240;-70
2021/06/09 01:59:40;;;;;;;6.30;5.80;;;15.60;99.90;;;;;;7642922;23;20207;-70
2021/06/09 02:02:43;;;;;;;6.60;6.00;;;15.50;99.90;;;;;;7642325;23;20175;-70
2021/06/09 02:05:45;;;;;;;7.03;6.33;;;15.50;99.90;;;;;;7643020;23;20529;-70
2021/06/09 02:08:48;;;;;;;6.57;6.07;;;15.50;99.90;;;;;;7641101;23;20185;-70
2021/06/09 02:11:51;;;;;;;7.30;6.60;;;15.50;99.90;;;;;;7641312;23;20161;-70
2021/06/09 02:14:53;;;;;;;6.67;6.17;;;15.40;99.90;;;;;;7642264;23;20176;-70
2021/06/09 02:18:17;;;;;;;7.07;6.47;;;15.50;99.90;;;;;;7640843;23;20171;-70
2021/06/09 02:21:19;;;;;;;7.47;6.87;;;15.40;99.90;;;;;;7641271;23;20477;-70
2021/06/09 02:24:22;;;;;;;7.50;6.73;;;15.40;99.90;;;;;;7640504;23;20490;-70
2021/06/09 02:27:24;;;;;;;6.97;6.37;;;15.40;99.90;;;;;;7615254;23;20181;-70
2021/06/09 02:30:26;;;;;;;7.10;6.47;;;15.30;99.90;;;;;;7641328;23;20161;-70
2021/06/09 02:33:28;;;;;;;7.00;6.37;;;15.30;99.90;;;;;;7614545;23;20611;-70
2021/06/09 02:36:30;;;;;;;6.50;6.00;;;15.30;99.90;;;;;;7641291;23;20188;-70
2021/06/09 02:39:33;;;;;;;7.33;6.60;;;15.30;99.90;;;;;;7614485;23;20738;-70
2021/06/09 02:42:36;;;;;;;7.77;6.43;;;15.30;99.90;;;;;;7590874;23;20168;-70
2021/06/09 02:45:39;;;;;;;7.10;6.50;;;15.30;99.90;;;;;;7614508;23;20181;-70
2021/06/09 02:48:46;;;;;;;11.20;8.07;;;15.30;99.90;;;;;;7615214;23;20208;-70
2021/06/09 02:51:55;;;;;;;7.60;6.90;;;15.30;99.90;;;;;;7640832;23;20153;-70
2021/06/09 02:55:16;;;;;;;7.77;7.07;;;15.30;99.90;;;;;;7640582;23;20211;-70
2021/06/09 02:58:41;;;;;;;7.63;6.93;;;15.30;99.90;;;;;;7640853;23;20196;-70
2021/06/09 03:02:16;;;;;;;9.53;7.77;;;15.30;99.90;;;;;;7640231;23;20157;-70
2021/06/09 03:05:25;;;;;;;7.20;6.60;;;15.40;99.90;;;;;;7625953;23;20704;-70
2021/06/09 03:08:42;;;;;;;6.60;6.00;;;15.40;99.90;;;;;;7640368;23;20513;-70
2021/06/09 03:11:51;;;;;;;7.17;6.50;;;15.40;99.90;;;;;;7640532;23;20153;-70
2021/06/09 03:15:10;;;;;;;7.33;6.70;;;15.50;99.90;;;;;;7640931;23;20344;-70
2021/06/09 03:18:19;;;;;;;8.03;7.33;;;15.50;99.90;;;;;;7640705;23;20227;-70
2021/06/09 03:21:27;;;;;;;8.17;7.57;;;15.50;99.90;;;;;;7640568;23;20164;-70
2021/06/09 03:24:39;;;;;;;6.97;6.37;;;15.50;99.90;;;;;;7640272;23;20158;-70
2021/06/09 03:27:53;;;;;;;7.57;6.40;;;15.60;99.90;;;;;;7614016;23;20180;-70
2021/06/09 03:31:02;;;;;;;7.73;7.03;;;15.60;99.90;;;;;;7640155;23;20160;-70
2021/06/09 03:34:11;;;;;;;7.40;6.80;;;15.70;99.90;;;;;;7614568;23;20165;-70
2021/06/09 03:37:18;;;;;;;7.27;6.67;;;15.70;99.90;;;;;;7639791;23;20239;-70
2021/06/09 03:40:30;;;;;;;8.23;7.40;;;15.70;99.90;;;;;;7614201;23;20272;-70
2021/06/09 03:43:39;;;;;;;7.50;6.90;;;15.80;99.90;;;;;;7640414;23;20604;-70
2021/06/09 03:46:43;;;;;;;7.07;6.47;;;15.90;99.90;;;;;;7613652;23;20169;-70
2021/06/09 03:49:47;;;;;;;8.00;7.30;;;15.90;99.90;;;;;;7640552;23;20644;-70
2021/06/09 03:52:51;;;;;;;7.33;6.80;;;15.90;99.90;;;;;;7639897;23;20665;-70
2021/06/09 03:55:57;;;;;;;7.00;6.40;;;15.90;99.90;;;;;;7614317;23;20169;-70
2021/06/09 03:59:02;;;;;;;7.37;6.77;;;15.90;99.90;;;;;;7585942;23;20672;-70
2021/06/09 04:02:08;;;;;;;8.37;7.07;;;15.90;99.90;;;;;;7576922;23;20182;-70
2021/06/09 04:05:11;;;;;;;7.47;6.77;;;15.80;99.90;;;;;;7577841;23;20184;-70
2021/06/09 04:08:16;;;;;;;7.20;6.60;;;15.80;99.90;;;;;;7553451;23;20212;-70
2021/06/09 04:11:22;;;;;;;6.50;6.00;;;15.80;99.90;;;;;;7553772;23;20558;-70
2021/06/09 04:14:36;;;;;;;7.23;6.63;;;15.70;99.90;;;;;;7577084;23;20170;-70
2021/06/09 04:17:40;;;;;;;6.90;6.30;;;15.70;99.90;;;;;;7577758;23;20519;-70
2021/06/09 04:20:43;;;;;;;7.87;7.17;;;15.70;99.90;;;;;;7603352;23;20165;-70
2021/06/09 04:23:46;;;;;;;8.20;7.40;;;15.60;99.90;;;;;;7602956;23;20172;-70
2021/06/09 04:26:52;;;;;;;8.20;7.50;;;15.60;99.90;;;;;;7577911;23;20158;-70
2021/06/09 04:29:58;;;;;;;8.17;7.37;;;15.60;99.90;;;;;;7576953;23;20262;-70
2021/06/09 04:33:03;;;;;;;8.03;7.33;;;15.50;99.90;;;;;;7577500;23;20166;-70
2021/06/09 04:36:11;;;;;;;7.77;7.07;;;15.50;99.90;;;;;;7577296;23;20193;-70
2021/06/09 04:39:14;;;;;;;7.50;6.90;;;15.50;99.90;;;;;;7603406;23;20605;-70
2021/06/09 04:42:19;;;;;;;7.20;6.60;;;15.50;99.90;;;;;;7577304;23;20717;-70
2021/06/09 04:45:23;;;;;;;7.27;6.67;;;15.50;99.90;;;;;;7577282;23;20162;-70
2021/06/09 04:48:25;;;;;;;7.97;7.17;;;15.50;99.90;;;;;;7552804;23;20194;-70
2021/06/09 04:51:32;;;;;;;8.43;7.73;;;15.50;99.90;;;;;;7576408;23;20637;-70
2021/06/09 04:54:36;;;;;;;7.33;6.70;;;15.50;99.90;;;;;;7603050;23;20169;-70
2021/06/09 04:57:38;;;;;;;7.67;6.93;;;15.50;99.90;;;;;;7614347;23;20193;-70
2021/06/09 05:00:43;;;;;;;8.73;7.93;;;15.50;99.90;;;;;;7639714;23;20490;-70
2021/06/09 05:03:45;;;;;;;8.27;7.43;;;15.50;99.90;;;;;;7614308;23;20173;-70
2021/06/09 05:06:47;;;;;;;7.93;7.27;;;15.50;99.90;;;;;;7614380;23;20176;-70
2021/06/09 05:09:49;;;;;;;7.90;7.13;;;15.60;99.90;;;;;;7640028;23;20516;-70
2021/06/09 05:13:05;;;;;;;9.00;8.10;;;15.60;99.90;;;;;;7590040;23;20606;-70
2021/06/09 05:16:15;;;;;;;7.83;7.23;;;15.60;99.90;;;;;;7639590;23;20146;-70
2021/06/09 05:19:20;;;;;;;8.47;7.67;;;15.60;99.90;;;;;;7613959;23;20165;-70
2021/06/09 05:22:26;;;;;;;7.90;7.20;;;15.60;99.90;;;;;;7613854;23;20256;-70
2021/06/09 05:25:31;;;;;;;7.90;7.30;;;15.70;99.90;;;;;;7639961;23;20158;-70
2021/06/09 05:28:37;;;;;;;8.17;7.37;;;15.80;99.90;;;;;;7639107;23;20626;-70
2021/06/09 05:31:42;;;;;;;7.83;7.13;;;15.90;99.90;;;;;;7589538;23;20158;-70
2021/06/09 05:34:45;;;;;;;8.10;7.40;;;15.90;99.90;;;;;;7613748;23;20177;-70
2021/06/09 05:37:48;;;;;;;7.90;7.07;;;16.00;99.90;;;;;;7639307;23;20181;-70
2021/06/09 05:40:56;;;;;;;7.80;7.00;;;16.20;99.90;;;;;;7639806;23;20165;-70
2021/06/09 05:43:58;;;;;;;7.10;6.50;;;16.30;99.90;;;;;;7613512;23;20169;-70
2021/06/09 05:47:02;;;;;;;6.87;6.33;;;16.40;99.90;;;;;;7639993;23;20606;-70
2021/06/09 05:50:16;;;;;;;7.73;6.47;;;16.50;99.90;;;;;;7613234;23;20206;-70
2021/06/09 05:53:20;;;;;;;7.20;6.50;;;16.60;99.90;;;;;;7639657;23;20232;-71
2021/06/09 05:56:24;;;;;;;7.13;6.43;;;16.70;99.90;;;;;;7613787;23;20538;-71
2021/06/09 05:59:27;;;;;;;6.90;6.30;;;16.90;99.90;;;;;;7614784;23;20259;-71
2021/06/09 06:02:29;;;;;;;6.67;6.03;;;17.00;99.90;;;;;;7642391;23;20175;-71
2021/06/09 06:05:35;;;;;;;7.03;6.43;;;17.10;99.90;;;;;;7615786;23;20183;-71
2021/06/09 06:08:40;;;;;;;6.33;5.70;;;17.20;99.90;;;;;;7616474;23;20506;-71
2021/06/09 06:11:44;;;;;;;7.10;5.87;;;17.40;99.90;;;;;;7642563;23;20232;-71
2021/06/09 06:14:46;;;;;;;6.57;5.97;;;17.50;99.90;;;;;;7615079;23;20253;-71
2021/06/09 06:17:49;;;;;;;5.80;5.30;;;17.60;99.90;;;;;;7615596;23;20172;-71
2021/06/09 06:20:53;;;;;;;6.50;5.83;;;17.70;99.90;;;;;;7641126;23;20495;-71
2021/06/09 06:23:56;;;;;;;5.43;4.90;;;17.80;99.90;;;;;;7641813;23;20220;-72
2021/06/09 06:26:59;;;;;;;5.40;4.90;;;18.00;99.90;;;;;;7615206;23;20200;-71
2021/06/09 06:30:03;;;;;;;5.23;4.77;;;18.10;99.90;;;;;;7640943;23;20189;-71
2021/06/09 06:33:06;;;;;;;8.00;5.77;;;18.30;99.90;;;;;;7615209;23;20243;-71
2021/06/09 06:36:10;;;;;;;5.10;4.70;;;18.50;99.90;;;;;;7640723;23;20232;-71
2021/06/09 06:39:13;;;;;;;5.60;5.10;;;18.70;99.90;;;;;;7641491;23;20176;-71
2021/06/09 06:42:18;;;;;;;5.30;4.80;;;19.00;99.90;;;;;;7640553;23;20175;-71
2021/06/09 06:45:24;;;;;;;5.80;5.17;;;19.30;99.90;;;;;;7641754;23;20176;-71
2021/06/09 06:48:28;;;;;;;5.73;4.87;;;19.60;99.90;;;;;;7615090;23;20247;-71
2021/06/09 06:51:32;;;;;;;5.07;4.63;;;19.90;99.90;;;;;;7640784;23;20161;-71
2021/06/09 06:54:34;;;;;;;5.63;5.03;;;20.20;99.90;;;;;;7641667;23;20169;-71
2021/06/09 06:57:37;;;;;;;4.90;4.50;;;20.40;99.90;;;;;;7640105;23;20665;-71
2021/06/09 07:00:39;;;;;;;4.57;4.10;;;20.70;99.90;;;;;;7641507;23;20204;-71
2021/06/09 07:03:43;;;;;;;4.80;4.40;;;20.90;99.90;;;;;;7641252;23;20173;-71
2021/06/09 07:06:47;;;;;;;5.13;4.13;;;21.10;99.90;;;;;;7615363;23;20175;-71
2021/06/09 07:09:52;;;;;;;7.03;4.37;;;21.30;98.40;;;;;;7641040;23;20263;-71
2021/06/09 07:12:59;;;;;;;5.70;4.10;;;21.50;97.30;;;;;;7615274;23;20240;-71
2021/06/09 07:16:03;;;;;;;4.40;4.00;;;21.80;96.50;;;;;;7616025;23;20590;-71
2021/06/09 07:19:07;;;;;;;4.20;3.90;;;22.10;94.80;;;;;;7615856;23;20212;-71
2021/06/09 07:22:09;;;;;;;5.87;4.20;;;22.40;93.60;;;;;;7641214;23;20176;-71
2021/06/09 07:25:12;;;;;;;4.00;3.67;;;22.70;92.90;;;;;;7615755;23;20625;-71
2021/06/09 07:28:18;;;;;;;4.23;3.93;;;23.00;92.20;;;;;;7641283;23;20272;-71
2021/06/09 07:31:29;;;;;;;4.43;4.03;;;23.20;91.10;;;;;;7641467;23;20701;-71
2021/06/09 07:34:31;;;;;;;6.00;4.07;;;23.40;90.30;;;;;;7642557;23;20172;-71
2021/06/09 07:37:40;;;;;;;6.67;3.80;;;23.60;90.00;;;;;;7642350;23;20189;-71
2021/06/09 07:40:46;;;;;;;3.83;3.53;;;23.80;86.70;;;;;;7615403;23;20603;-71
2021/06/09 07:43:49;;;;;;;4.20;3.60;;;24.10;86.90;;;;;;7615153;23;20173;-71
2021/06/09 07:46:54;;;;;;;3.90;3.57;;;24.40;80.40;;;;;;7616834;23;20165;-71
2021/06/09 07:49:59;;;;;;;3.30;3.10;;;24.80;79.10;;;;;;7641336;23;20184;-71
2021/06/09 07:53:10;;;;;;;3.67;3.37;;;25.10;76.70;;;;;;7641980;23;20167;-71
2021/06/09 07:56:15;;;;;;;4.03;3.63;;;25.50;75.90;;;;;;7641792;23;20553;-71
2021/06/09 07:59:20;;;;;;;4.03;3.73;;;25.70;72.00;;;;;;7641753;23;20204;-71
2021/06/09 08:02:22;;;;;;;3.80;3.50;;;25.90;71.90;;;;;;7642157;23;20168;-71
2021/06/09 08:05:25;;;;;;;3.50;3.20;;;26.10;71.30;;;;;;7615542;23;20172;-71
2021/06/09 08:08:29;;;;;;;3.90;3.50;;;26.20;68.00;;;;;;7614559;23;20177;-71
2021/06/09 08:11:32;;;;;;;4.15;3.80;;;26.40;65.20;;;;;;7641117;23;20227;-71
2021/06/09 08:14:34;;;;;;;3.72;3.42;;;26.30;62.10;;;;;;7614740;23;20180;-71
2021/06/09 08:17:39;;;;;;;3.55;3.25;;;26.60;63.80;;;;;;7641451;23;20173;-71
2021/06/09 08:21:04;;;;;;;6.35;3.95;;;27.00;64.70;;;;;;7614283;23;20165;-71
2021/06/09 08:24:07;;;;;;;3.85;3.58;;;27.20;60.70;;;;;;7641817;23;20160;-71
2021/06/09 08:27:09;;;;;;;4.90;3.50;;;27.40;61.20;;;;;;7640354;23;20173;-71
2021/06/09 08:30:12;;;;;;;4.47;3.63;;;27.60;57.70;;;;;;7615559;23;20180;-71
2021/06/09 08:33:15;;;;;;;4.57;3.50;;;27.80;57.20;;;;;;7640402;23;20164;-71
2021/06/09 08:36:18;;;;;;;4.65;3.35;;;27.90;56.70;;;;;;7640645;23;20185;-71
2021/06/09 08:39:21;;;;;;;3.85;3.35;;;28.20;56.80;;;;;;7640560;23;20201;-71
2021/06/09 08:42:26;;;;;;;3.50;3.20;;;28.30;55.60;;;;;;7614201;23;20177;-71
2021/06/09 08:45:29;;;;;;;3.70;3.40;;;28.50;54.20;;;;;;7614128;23;20631;-71
2021/06/09 08:48:37;;;;;;;3.72;3.42;;;28.70;55.10;;;;;;7640605;23;20168;-71
2021/06/09 08:51:39;;;;;;;3.95;3.50;;;29.00;53.30;;;;;;7614585;23;20204;-71
2021/06/09 08:54:46;;;;;;;3.45;3.15;;;29.30;54.90;;;;;;7641780;23;20168;-71
2021/06/09 08:57:49;;;;;;;4.40;3.58;;;29.30;52.10;;;;;;7640809;23;20305;-71
2021/06/09 09:00:52;;;;;;;3.40;3.10;;;29.30;50.70;;;;;;7641195;23;20503;-71
2021/06/09 09:03:54;;;;;;;3.30;3.05;;;29.10;50.70;;;;;;7640742;23;20248;-71
2021/06/09 09:06:57;;;;;;;4.95;3.03;;;29.20;52.90;;;;;;7641041;23;20247;-71
2021/06/09 09:10:00;;;;;;;3.22;2.85;;;29.30;51.30;;;;;;7641467;23;20493;-71
2021/06/09 09:13:06;;;;;;;3.08;2.88;;;29.30;49.20;;;;;;7614851;23;20249;-71
2021/06/09 09:16:09;;;;;;;3.33;3.03;;;29.40;48.50;;;;;;7615362;23;20177;-70
2021/06/09 09:19:29;;;;;;;3.40;3.05;;;29.40;48.40;;;;;;7614111;23;20491;-70
2021/06/09 09:22:34;;;;;;;3.33;3.13;;;29.80;49.00;;;;;;7615510;23;20244;-70
2021/06/09 09:25:36;;;;;;;4.10;2.90;;;30.00;48.40;;;;;;7615358;23;20176;-70
2021/06/09 09:28:38;;;;;;;6.47;3.30;;;30.00;47.60;;;;;;7615686;23;20585;-70
2021/06/09 09:31:51;;;;;;;4.22;3.67;;;29.90;47.50;;;;;;7641235;23;20189;-70
2021/06/09 09:35:12;;;;;;;4.18;3.53;;;29.90;47.20;;;;;;7617394;23;20317;-70
2021/06/09 09:38:20;;;;;;;5.40;3.30;;;30.20;48.10;;;;;;7644339;23;20185;-70
2021/06/09 09:41:31;;;;;;;4.93;3.08;;;30.30;46.80;;;;;;7643120;23;20204;-70
2021/06/09 09:44:36;;;;;;;4.75;2.80;;;30.00;46.00;;;;;;7643552;23;20168;-70
2021/06/09 09:47:39;;;;;;;2.40;2.20;;;29.80;45.20;;;;;;7617064;23;20175;-70
2021/06/09 09:50:45;;;;;;;3.50;3.20;;;29.80;46.70;;;;;;7641720;23;20184;-70
2021/06/09 09:53:55;;;;;;;3.33;3.05;;;29.70;44.90;;;;;;7616417;23;20475;-70
2021/06/09 09:56:59;;;;;;;3.72;3.22;;;30.00;45.10;;;;;;7615415;23;20232;-70
2021/06/09 10:00:01;;;;;;;4.82;2.80;;;30.10;45.50;;;;;;7615400;23;20172;-70
2021/06/09 10:03:18;;;;;;;4.10;2.67;;;30.70;46.00;;;;;;7616301;23;20176;-71
2021/06/09 10:06:31;;;;;;;5.20;3.30;;;31.10;46.20;;;;;;7616088;23;20165;-71
2021/06/09 10:09:39;;;;;;;5.10;3.40;;;31.30;43.90;;;;;;7641133;23;20183;-71
2021/06/09 10:13:19;;;;;;;3.90;3.28;;;31.40;44.60;;;;;;7641929;23;20161;-71
2021/06/09 10:16:21;;;;;;;6.65;3.80;;;31.00;45.10;;;;;;7641733;23;20239;-71
2021/06/09 10:19:27;;;;;;;3.30;3.10;;;31.10;44.80;;;;;;7614792;23;20176;-71
2021/06/09 10:22:36;;;;;;;3.35;3.05;;;31.40;45.10;;;;;;7615114;23;20169;-71
2021/06/09 10:25:38;;;;;;;5.53;2.78;;;31.80;44.30;;;;;;7640937;23;20160;-71
2021/06/09 10:29:05;;;;;;;3.05;2.85;;;32.10;42.80;;;;;;7641379;23;20169;-71
2021/06/09 10:32:12;;;;;;;3.92;2.92;;;31.90;42.80;;;;;;7641497;23;20169;-71
2021/06/09 10:35:18;;;;;;;3.47;2.80;;;31.40;42.90;;;;;;7616331;23;20228;-71
2021/06/09 10:38:20;;;;;;;4.35;3.00;;;31.30;42.30;;;;;;7641991;23;20181;-71
2021/06/09 10:41:28;;;;;;;3.88;3.47;;;31.20;42.60;;;;;;7641253;23;20157;-71
2021/06/09 10:44:36;;;;;;;3.30;3.00;;;31.20;43.20;;;;;;7615049;23;20180;-71
2021/06/09 10:47:39;;;;;;;3.10;2.80;;;31.40;42.10;;;;;;7641236;23;20161;-71
2021/06/09 10:50:42;;;;;;;2.55;2.35;;;31.90;41.80;;;;;;7641954;23;20181;-71
2021/06/09 10:53:45;;;;;;;3.97;2.47;;;32.30;40.80;;;;;;7615723;23;20239;-71
2021/06/09 10:56:49;;;;;;;3.00;2.35;;;32.30;39.60;;;;;;7641038;23;20169;-71
2021/06/09 10:59:51;;;;;;;3.28;2.55;;;31.30;40.00;;;;;;7641263;23;20157;-71
2021/06/09 11:02:55;;;;;;;2.80;2.60;;;31.30;42.30;;;;;;7640671;23;20219;-71
2021/06/09 11:06:04;;;;;;;2.80;2.60;;;31.50;41.50;;;;;;7641523;23;20175;-71
2021/06/09 11:09:12;;;;;;;2.42;2.22;;;31.60;40.30;;;;;;7615067;23;20157;-71
2021/06/09 11:12:15;;;;;;;3.40;2.47;;;31.70;40.70;;;;;;7615144;23;20179;-71
2021/06/09 11:15:23;;;;;;;2.53;2.33;;;32.10;39.90;;;;;;7614765;23;20621;-71
2021/06/09 11:18:54;;;;;;;2.30;2.13;;;32.40;39.40;;;;;;7640484;23;20161;-71
2021/06/09 11:22:19;;;;;;;2.85;2.65;;;32.70;39.60;;;;;;7590910;23;20179;-71
2021/06/09 11:25:28;;;;;;;3.25;2.95;;;32.60;38.70;;;;;;7615044;23;20232;-71
2021/06/09 11:28:38;;;;;;;5.43;2.88;;;32.00;38.50;;;;;;7615612;23;20605;-71
2021/06/09 11:31:42;;;;;;;3.22;2.92;;;32.10;40.00;;;;;;7640185;23;20177;-71
2021/06/09 11:34:59;;;;;;;2.78;2.22;;;32.30;39.10;;;;;;7640998;23;20165;-71
2021/06/09 11:38:39;;;;;;;3.90;2.50;;;32.60;38.10;;;;;;7640869;23;20188;-71
2021/06/09 11:41:44;;;;;;;2.97;2.20;;;33.20;38.50;;;;;;7640646;23;20232;-71
2021/06/09 11:44:46;;;;;;;3.22;2.55;;;33.20;37.90;;;;;;7640788;23;20176;-71
2021/06/09 11:47:48;;;;;;;4.15;2.92;;;32.40;39.00;;;;;;7640724;23;20179;-71
2021/06/09 11:50:55;;;;;;;3.45;2.95;;;31.70;40.00;;;;;;7640816;23;20189;-71
2021/06/09 11:54:04;;;;;;;3.33;2.72;;;31.30;40.20;;;;;;7614368;23;20177;-71
2021/06/09 11:57:20;;;;;;;2.70;2.50;;;31.30;39.80;;;;;;7640032;23;20524;-71
2021/06/09 12:02:26;;;;;;;3.13;2.83;;;31.80;40.20;;;;;;7613965;23;20192;-71
2021/06/09 12:05:37;;;;;;;3.08;2.58;;;32.30;39.50;;;;;;7492469;23;20183;-71
2021/06/09 12:08:40;;;;;;;4.15;3.03;;;32.90;39.70;;;;;;7546543;23;20493;-71
2021/06/09 12:11:44;;;;;;;2.90;2.70;;;33.20;38.70;;;;;;7614663;23;20519;-71
2021/06/09 12:14:52;;;;;;;3.53;2.83;;;33.70;38.70;;;;;;7641241;23;20232;-71
2021/06/09 12:17:55;;;;;;;3.42;2.80;;;34.20;37.80;;;;;;7615742;23;20236;-71
2021/06/09 12:21:07;;;;;;;2.75;2.55;;;34.20;36.30;;;;;;7641471;23;20254;-71
2021/06/09 12:24:10;;;;;;;4.22;3.00;;;33.60;37.00;;;;;;7615028;23;20169;-71
2021/06/09 12:27:13;;;;;;;2.97;2.67;;;33.60;37.40;;;;;;7641296;23;20272;-71
2021/06/09 12:30:23;;;;;;;2.80;2.60;;;33.40;37.70;;;;;;7640710;23;20260;-71
2021/06/09 12:33:40;;;;;;;3.13;2.83;;;33.80;37.20;;;;;;7641415;23;20228;-71
2021/06/09 12:36:51;;;;;;;3.22;2.92;;;33.60;37.10;;;;;;7615866;23;20192;-71
2021/06/09 12:40:19;;;;;;;3.53;2.67;;;33.00;37.90;;;;;;7614557;23;20177;-71
2021/06/09 12:43:24;;;;;;;2.60;2.40;;;33.10;37.70;;;;;;7627873;23;20511;-71
2021/06/09 12:46:27;;;;;;;3.30;3.00;;;33.20;37.60;;;;;;7614623;23;20184;-71
2021/06/09 12:49:33;;;;;;;3.08;2.88;;;33.40;36.40;;;;;;7641529;23;20161;-71
2021/06/09 12:52:37;;;;;;;3.65;2.78;;;33.40;37.60;;;;;;7640468;23;20161;-71
2021/06/09 12:56:06;;;;;;;2.75;2.55;;;33.80;37.00;;;;;;7614797;23;20617;-71
2021/06/09 12:59:09;;;;;;;2.65;2.45;;;33.90;36.30;;;;;;7640664;23;20192;-71
2021/06/09 13:02:11;;;;;;;3.55;2.90;;;33.80;37.00;;;;;;7640846;23;20169;-71
2021/06/09 13:05:18;;;;;;;2.70;2.45;;;33.60;36.60;;;;;;7640980;23;20168;-71
2021/06/09 13:08:32;;;;;;;3.35;2.85;;;33.10;36.60;;;;;;7639897;23;20153;-71
2021/06/09 13:11:35;;;;;;;3.25;2.95;;;33.00;37.70;;;;;;7640043;23;20177;-71
2021/06/09 13:14:38;;;;;;;3.15;2.85;;;33.20;37.60;;;;;;7640205;23;20165;-71
2021/06/09 13:17:50;;;;;;;4.20;3.20;;;33.00;36.90;;;;;;7615230;23;20180;-71
2021/06/09 13:21:07;;;;;;;2.70;2.47;;;32.80;37.70;;;;;;7614774;23;20479;-71
2021/06/09 13:24:45;;;;;;;3.40;3.10;;;32.40;38.20;;;;;;7639649;23;20497;-71
2021/06/09 13:27:55;;;;;;;3.63;2.88;;;32.50;37.90;;;;;;7635368;23;20629;-71
2021/06/09 13:30:57;;;;;;;3.88;2.60;;;33.30;37.70;;;;;;7614169;23;20208;-71
2021/06/09 13:34:01;;;;;;;3.00;2.75;;;34.00;38.10;;;;;;7640273;23;20165;-71
2021/06/09 13:37:05;;;;;;;5.07;2.83;;;34.40;38.80;;;;;;7613611;23;20727;-71
2021/06/09 13:40:22;;;;;;;3.20;2.63;;;35.10;37.10;;;;;;7614295;23;20176;-71
2021/06/09 13:43:28;;;;;;;3.25;2.70;;;35.40;36.10;;;;;;7614931;23;20153;-71
2021/06/09 13:46:43;;;;;;;3.85;2.80;;;35.50;35.30;;;;;;7639850;23;20157;-71
2021/06/09 13:49:58;;;;;;;4.68;2.85;;;35.50;34.80;;;;;;7640088;23;20169;-71
2021/06/09 13:53:07;;;;;;;3.28;2.97;;;35.90;34.90;;;;;;7614322;23;20152;-71
2021/06/09 13:56:10;;;;;;;3.15;2.85;;;36.40;34.60;;;;;;7615895;23;20153;-71
2021/06/09 13:59:16;;;;;;;2.95;2.65;;;36.50;34.00;;;;;;7639703;23;20188;-71
2021/06/09 14:02:29;;;;;;;2.90;2.70;;;36.50;33.90;;;;;;7616410;23;20161;-71
2021/06/09 14:05:36;;;;;;;3.28;2.75;;;36.70;33.50;;;;;;7640147;23;20149;-71
2021/06/09 14:08:40;;;;;;;4.28;2.80;;;36.80;33.80;;;;;;7639774;23;20149;-71
2021/06/09 14:12:02;;;;;;;2.60;2.40;;;36.90;33.80;;;;;;7640109;23;20199;-71
2021/06/09 14:15:17;;;;;;;2.83;2.63;;;37.10;33.10;;;;;;7639333;23;20514;-71
2021/06/09 14:18:20;;;;;;;3.05;2.85;;;37.20;33.10;;;;;;7640207;23;20173;-71
2021/06/09 14:21:31;;;;;;;3.22;2.92;;;37.60;33.80;;;;;;7615418;23;20663;-71
2021/06/09 14:24:37;;;;;;;4.35;2.90;;;37.90;32.40;;;;;;7642251;23;20158;-71
2021/06/09 14:28:00;;;;;;;3.95;2.80;;;38.10;32.90;;;;;;7616624;23;20157;-71
2021/06/09 14:31:15;;;;;;;2.65;2.45;;;38.20;32.30;;;;;;7615435;23;20189;-71
2021/06/09 14:34:24;;;;;;;4.07;2.92;;;37.90;32.30;;;;;;7615825;23;20651;-71
2021/06/09 14:37:38;;;;;;;3.25;2.67;;;38.00;32.90;;;;;;7641313;23;20191;-71
2021/06/09 14:40:41;;;;;;;3.10;2.80;;;38.60;33.00;;;;;;7640888;23;20664;-71
2021/06/09 14:44:07;;;;;;;4.95;3.00;;;39.20;32.60;;;;;;7641741;23;20176;-71
2021/06/09 14:50:22;;;;;;;3.85;3.10;;;37.40;32.50;;;;;;7641766;23;20749;-71
2021/06/09 14:53:25;;;;;;;3.33;3.13;;;35.70;34.00;;;;;;7615485;23;20543;-71
2021/06/09 14:56:27;;;;;;;3.90;2.83;;;34.50;36.80;;;;;;7642278;23;20207;-71
2021/06/09 14:59:30;;;;;;;2.95;2.75;;;33.50;39.60;;;;;;7578808;23;20287;-71
2021/06/09 15:02:36;;;;;;;3.63;2.83;;;32.80;40.70;;;;;;7579932;23;20181;-71
2021/06/09 15:05:41;;;;;;;2.67;2.47;;;33.90;40.70;;;;;;7604858;23;20158;-71
2021/06/09 15:08:44;;;;;;;4.45;2.80;;;35.70;37.90;;;;;;7555856;23;20513;-71
2021/06/09 15:11:48;;;;;;;2.95;2.75;;;37.30;36.00;;;;;;7605045;23;20186;-71
2021/06/09 15:14:51;;;;;;;3.88;2.90;;;37.50;33.50;;;;;;7605322;23;20162;-71
2021/06/09 15:17:54;;;;;;;3.22;2.92;;;37.40;32.80;;;;;;7603583;23;20618;-71
2021/06/09 15:21:08;;;;;;;3.53;3.17;;;36.00;33.60;;;;;;7581731;23;20154;-71
2021/06/09 15:24:10;;;;;;;3.78;3.40;;;35.00;35.80;;;;;;7606046;23;20170;-71
2021/06/09 15:27:14;;;;;;;5.05;3.45;;;35.20;36.50;;;;;;7605432;23;20620;-71
2021/06/09 15:30:17;;;;;;;4.80;3.35;;;36.00;36.20;;;;;;7604710;23;20176;-71
2021/06/09 15:33:20;;;;;;;4.07;3.25;;;36.80;35.50;;;;;;7605008;23;20169;-71
2021/06/09 15:36:23;;;;;;;8.70;3.80;;;37.00;35.30;;;;;;7579348;23;20519;-71
2021/06/09 15:39:26;;;;;;;4.03;3.35;;;36.90;35.30;;;;;;7605213;23;20162;-71
2021/06/09 15:42:29;;;;;;;4.20;3.45;;;37.00;35.60;;;;;;7605240;23;20224;-71
2021/06/09 15:45:33;;;;;;;4.10;3.42;;;37.40;35.50;;;;;;7604325;23;20183;-71
2021/06/09 15:48:41;;;;;;;3.70;3.40;;;36.90;35.50;;;;;;7605440;23;20220;-71
2021/06/09 15:51:44;;;;;;;3.58;3.15;;;35.50;36.70;;;;;;7604630;23;20535;-71
2021/06/09 15:54:48;;;;;;;5.32;3.42;;;34.20;37.90;;;;;;7600891;23;20162;-71
2021/06/09 15:57:57;;;;;;;4.55;3.40;;;32.70;39.60;;;;;;7599829;23;20196;-71
2021/06/09 16:01:02;;;;;;;3.80;3.50;;;31.20;42.30;;;;;;7578578;23;20184;-71
2021/06/09 16:04:05;;;;;;;4.15;3.85;;;30.10;43.20;;;;;;7605118;23;20157;-71
2021/06/09 16:07:08;;;;;;;5.85;3.95;;;28.80;43.90;;;;;;7604494;23;20165;-71
2021/06/09 16:10:10;;;;;;;4.95;3.97;;;27.70;45.20;;;;;;7578681;23;20185;-71
2021/06/09 16:13:14;;;;;;;5.00;4.18;;;26.80;46.50;;;;;;7578963;23;20250;-70
2021/06/09 16:16:17;;;;;;;4.43;3.83;;;26.30;47.90;;;;;;7579411;23;20165;-70
2021/06/09 16:19:32;;;;;;;5.28;3.70;;;26.10;48.20;;;;;;7578184;23;20177;-70